createdAt,value
2023-03-30T00:00:36.295Z,21.40
2023-03-30T00:01:40.116Z,19.85
2023-03-30T00:02:44.226Z,21.17
2023-03-30T00:03:48.964Z,21.15
2023-03-30T00:04:53.450Z,22.53
2023-03-30T00:05:57.724Z,20.52
2023-03-30T00:07:01.447Z,23.15
2023-03-30T00:08:05.131Z,22.00
2023-03-30T00:09:08.740Z,23.08
2023-03-30T00:10:13.537Z,23.23
2023-03-30T00:11:18.879Z,22.15
2023-03-30T00:12:22.602Z,23.60
2023-03-30T00:13:26.340Z,22.92
2023-03-30T00:14:30.150Z,25.10
2023-03-30T00:15:33.806Z,26.13
2023-03-30T00:16:37.405Z,21.50
2023-03-30T00:17:41.198Z,20.52
2023-03-30T00:18:45.762Z,23.55
2023-03-30T00:19:49.658Z,26.67
2023-03-30T00:20:53.920Z,24.47
2023-03-30T00:21:57.776Z,23.65
2023-03-30T00:23:04.419Z,21.98
2023-03-30T00:24:08.199Z,25.75
2023-03-30T00:25:13.819Z,22.92
2023-03-30T00:26:19.450Z,27.30
2023-03-30T00:27:23.172Z,24.08
2023-03-30T00:28:27.082Z,24.73
2023-03-30T00:29:30.830Z,26.45
2023-03-30T00:30:34.661Z,26.80
2023-03-30T00:31:38.420Z,26.03
2023-03-30T00:32:42.214Z,26.15
2023-03-30T00:33:47.351Z,24.33
2023-03-30T00:34:51.253Z,26.08
2023-03-30T00:35:55.118Z,27.67
2023-03-30T00:36:58.875Z,25.17
2023-03-30T00:38:02.686Z,25.90
2023-03-30T00:39:06.958Z,28.73
2023-03-30T00:40:16.901Z,24.52
2023-03-30T00:41:22.237Z,26.95
2023-03-30T00:42:26.144Z,25.77
2023-03-30T00:43:30.358Z,28.00
2023-03-30T00:45:10.401Z,26.10
2023-03-30T00:46:14.088Z,28.35
2023-03-30T00:47:18.209Z,24.60
2023-03-30T00:48:24.203Z,25.77
2023-03-30T00:49:27.892Z,27.10
2023-03-30T00:50:36.188Z,25.25
2023-03-30T00:51:41.558Z,23.90
2023-03-30T00:52:46.570Z,25.27
2023-03-30T00:53:54.261Z,25.23
2023-03-30T00:54:58.974Z,24.73
2023-03-30T00:56:05.511Z,28.27
2023-03-30T00:57:10.946Z,23.80
2023-03-30T00:58:16.805Z,23.17
2023-03-30T00:59:20.600Z,26.77
2023-03-30T01:00:24.379Z,31.50
2023-03-30T01:01:28.446Z,25.55
2023-03-30T01:02:34.497Z,26.73
2023-03-30T01:03:41.102Z,23.58
2023-03-30T01:04:45.128Z,25.30
2023-03-30T01:05:49.392Z,26.75
2023-03-30T01:06:53.797Z,23.73
2023-03-30T01:07:57.509Z,24.08
2023-03-30T01:09:01.625Z,27.58
2023-03-30T01:10:06.584Z,28.50
2023-03-30T01:11:10.565Z,25.77
2023-03-30T01:12:15.951Z,25.10
2023-03-30T01:13:20.605Z,25.73
2023-03-30T01:14:24.401Z,24.67
2023-03-30T01:15:33.559Z,30.43
2023-03-30T01:16:44.679Z,23.58
2023-03-30T01:18:06.108Z,25.75
2023-03-30T01:19:33.937Z,24.25
2023-03-30T01:21:21.098Z,23.73
2023-03-30T01:22:48.498Z,23.63
2023-03-30T01:24:31.420Z,25.05
2023-03-30T01:26:00.816Z,25.55
2023-03-30T01:27:19.719Z,23.92
2023-03-30T01:28:31.828Z,24.73
2023-03-30T01:29:47.949Z,22.40
2023-03-30T01:31:21.194Z,26.40
2023-03-30T01:33:09.366Z,23.83
2023-03-30T01:35:09.818Z,21.63
2023-03-30T01:36:44.427Z,22.40
2023-03-30T01:38:10.165Z,27.73
2023-03-30T01:39:41.467Z,25.52
2023-03-30T01:41:02.084Z,24.48
2023-03-30T01:42:16.816Z,23.33
2023-03-30T01:43:28.250Z,22.30
2023-03-30T01:44:41.608Z,21.37
2023-03-30T01:45:48.329Z,24.13
2023-03-30T01:46:58.099Z,25.13
2023-03-30T01:48:08.975Z,22.45
2023-03-30T01:49:17.995Z,24.85
2023-03-30T01:50:25.675Z,21.63
2023-03-30T01:51:33.385Z,23.27
2023-03-30T01:52:40.841Z,22.08
2023-03-30T01:53:52.547Z,22.98
2023-03-30T01:55:01.941Z,23.45
2023-03-30T01:56:10.791Z,20.60
2023-03-30T01:57:17.997Z,23.42
2023-03-30T01:58:27.560Z,22.48
2023-03-30T01:59:36.309Z,23.17
2023-03-30T02:00:42.657Z,22.10
2023-03-30T02:01:48.456Z,23.80
2023-03-30T02:02:56.999Z,21.70
2023-03-30T02:04:30.344Z,23.60
2023-03-30T02:05:36.425Z,18.25
2023-03-30T02:06:44.925Z,18.17
2023-03-30T02:07:54.168Z,13.87
2023-03-30T02:09:00.857Z,13.18
2023-03-30T02:10:09.934Z,13.40
2023-03-30T02:11:13.630Z,14.68
2023-03-30T02:12:18.858Z,14.35
2023-03-30T02:13:24.199Z,13.33
2023-03-30T02:14:31.823Z,13.40
2023-03-30T02:15:39.369Z,12.80
2023-03-30T02:16:47.614Z,12.85
2023-03-30T02:17:53.124Z,13.95
2023-03-30T02:18:57.315Z,12.23
2023-03-30T02:20:01.191Z,13.57
2023-03-30T02:21:05.400Z,11.82
2023-03-30T02:22:09.433Z,12.32
2023-03-30T02:23:13.109Z,12.73
2023-03-30T02:24:20.397Z,13.53
2023-03-30T02:25:25.684Z,11.55
2023-03-30T02:26:29.416Z,11.68
2023-03-30T02:27:34.550Z,14.05
2023-03-30T02:28:38.254Z,11.98
2023-03-30T02:29:45.007Z,12.27
2023-03-30T02:30:48.785Z,13.82
2023-03-30T02:31:58.376Z,11.70
2023-03-30T02:33:02.667Z,13.43
2023-03-30T02:34:15.136Z,15.25
2023-03-30T02:35:27.864Z,12.23
2023-03-30T02:37:09.013Z,14.73
2023-03-30T02:38:36.333Z,13.77
2023-03-30T02:39:51.467Z,11.55
2023-03-30T02:41:07.923Z,13.10
2023-03-30T02:42:25.156Z,13.63
2023-03-30T02:43:38.871Z,12.43
2023-03-30T02:44:49.210Z,15.65
2023-03-30T02:45:59.665Z,13.10
2023-03-30T02:47:10.020Z,14.57
2023-03-30T02:48:26.073Z,12.77
2023-03-30T02:49:39.259Z,12.95
2023-03-30T02:50:47.995Z,12.20
2023-03-30T02:51:56.325Z,15.75
2023-03-30T02:53:08.509Z,16.10
2023-03-30T02:54:24.100Z,16.47
2023-03-30T02:55:35.554Z,13.90
2023-03-30T02:56:47.278Z,14.20
2023-03-30T02:58:02.073Z,13.90
2023-03-30T02:59:11.220Z,15.05
2023-03-30T03:00:19.668Z,15.07
2023-03-30T03:01:29.914Z,16.30
2023-03-30T03:02:40.102Z,17.17
2023-03-30T03:03:46.695Z,12.60
2023-03-30T03:04:52.592Z,14.50
2023-03-30T03:05:57.021Z,16.83
2023-03-30T03:07:01.118Z,14.05
2023-03-30T03:08:05.025Z,14.30
2023-03-30T03:09:08.733Z,14.43
2023-03-30T03:10:12.625Z,16.05
2023-03-30T03:11:16.284Z,14.20
2023-03-30T03:12:21.717Z,17.73
2023-03-30T03:13:25.405Z,15.50
2023-03-30T03:14:29.095Z,14.02
2023-03-30T03:15:32.708Z,13.52
2023-03-30T03:16:36.402Z,14.80
2023-03-30T03:17:40.128Z,13.73
2023-03-30T03:18:43.907Z,15.00
2023-03-30T03:19:47.600Z,15.60
2023-03-30T03:20:51.517Z,14.75
2023-03-30T03:21:55.276Z,14.80
2023-03-30T03:22:59.110Z,14.00
2023-03-30T03:24:02.766Z,15.25
2023-03-30T03:25:07.205Z,15.02
2023-03-30T03:26:11.191Z,12.43
2023-03-30T03:27:15.100Z,12.27
2023-03-30T03:28:20.581Z,13.43
2023-03-30T03:29:24.336Z,14.73
2023-03-30T03:30:28.107Z,13.73
2023-03-30T03:31:31.845Z,13.55
2023-03-30T03:32:35.502Z,14.10
2023-03-30T03:33:39.310Z,13.85
2023-03-30T03:34:43.079Z,14.55
2023-03-30T03:35:47.109Z,15.55
2023-03-30T03:36:50.881Z,13.48
2023-03-30T03:37:54.668Z,13.27
2023-03-30T03:38:58.411Z,14.77
2023-03-30T03:40:02.179Z,16.20
2023-03-30T03:41:06.459Z,14.30
2023-03-30T03:42:10.272Z,13.48
2023-03-30T03:43:13.884Z,14.00
2023-03-30T03:44:19.213Z,12.75
2023-03-30T03:45:22.951Z,14.40
2023-03-30T03:46:26.707Z,13.35
2023-03-30T03:47:32.096Z,12.77
2023-03-30T03:48:35.824Z,13.13
2023-03-30T03:49:39.529Z,12.90
2023-03-30T03:50:43.579Z,12.07
2023-03-30T03:51:47.468Z,13.60
2023-03-30T03:52:51.192Z,13.80
2023-03-30T03:53:54.919Z,13.37
2023-03-30T03:54:58.749Z,13.45
2023-03-30T03:56:02.559Z,14.10
2023-03-30T03:57:06.319Z,12.82
2023-03-30T03:58:10.070Z,14.43
2023-03-30T03:59:13.694Z,16.07
2023-03-30T04:00:19.979Z,12.48
2023-03-30T04:01:23.727Z,15.18
2023-03-30T04:02:28.483Z,14.73
2023-03-30T04:03:32.242Z,13.82
2023-03-30T04:04:35.992Z,14.13
2023-03-30T04:05:40.129Z,15.13
2023-03-30T04:06:43.848Z,16.95
2023-03-30T04:07:47.617Z,14.77
2023-03-30T04:08:51.374Z,14.15
2023-03-30T04:09:55.046Z,12.23
2023-03-30T04:11:06.353Z,12.15
2023-03-30T04:12:10.056Z,12.63
2023-03-30T04:13:13.785Z,14.20
2023-03-30T04:14:17.458Z,14.10
2023-03-30T04:15:22.928Z,13.70
2023-03-30T04:16:26.772Z,13.45
2023-03-30T04:17:30.528Z,14.05
2023-03-30T04:18:35.038Z,15.45
2023-03-30T04:19:38.826Z,15.88
2023-03-30T04:20:42.499Z,15.93
2023-03-30T04:21:46.266Z,17.15
2023-03-30T04:22:49.988Z,17.80
2023-03-30T04:23:53.728Z,19.10
2023-03-30T04:24:57.458Z,15.50
2023-03-30T04:26:01.343Z,14.50
2023-03-30T04:27:05.033Z,18.17
2023-03-30T04:28:08.686Z,16.25
2023-03-30T04:29:12.405Z,14.68
2023-03-30T04:30:16.336Z,15.65
2023-03-30T04:31:21.649Z,13.03
2023-03-30T04:32:25.511Z,14.57
2023-03-30T04:33:30.419Z,16.23
2023-03-30T04:34:34.231Z,14.00
2023-03-30T04:35:37.979Z,15.13
2023-03-30T04:36:41.833Z,14.10
2023-03-30T04:37:45.591Z,14.05
2023-03-30T04:38:49.401Z,16.08
2023-03-30T04:39:53.042Z,16.52
2023-03-30T04:40:56.912Z,14.98
2023-03-30T04:42:00.565Z,14.23
2023-03-30T04:43:05.377Z,13.50
2023-03-30T04:44:11.110Z,17.65
2023-03-30T04:45:14.807Z,13.50
2023-03-30T04:46:20.258Z,14.75
2023-03-30T04:47:23.958Z,16.07
2023-03-30T04:48:27.760Z,15.07
2023-03-30T04:49:31.401Z,15.40
2023-03-30T04:50:35.100Z,15.77
2023-03-30T04:51:38.803Z,17.48
2023-03-30T04:52:42.493Z,21.87
2023-03-30T04:53:46.189Z,17.55
2023-03-30T04:54:50.214Z,18.77
2023-03-30T04:55:53.905Z,17.00
2023-03-30T04:56:57.630Z,17.38
2023-03-30T04:58:01.811Z,14.97
2023-03-30T04:59:05.988Z,14.18
2023-03-30T05:00:10.670Z,16.15
2023-03-30T05:01:14.752Z,15.80
2023-03-30T05:02:20.135Z,18.17
2023-03-30T05:03:23.978Z,15.57
2023-03-30T05:04:27.835Z,15.93
2023-03-30T05:05:31.525Z,17.02
2023-03-30T05:06:35.349Z,17.10
2023-03-30T05:07:39.013Z,15.43
2023-03-30T05:08:42.720Z,16.17
2023-03-30T05:09:46.406Z,17.65
2023-03-30T05:10:50.119Z,15.18
2023-03-30T05:11:53.807Z,15.05
2023-03-30T05:12:57.986Z,14.75
2023-03-30T05:14:01.682Z,14.50
2023-03-30T05:15:05.727Z,16.90
2023-03-30T05:16:10.305Z,12.27
2023-03-30T05:17:14.208Z,12.77
2023-03-30T05:18:19.599Z,14.20
2023-03-30T05:19:23.216Z,14.30
2023-03-30T05:20:27.082Z,13.15
2023-03-30T05:21:30.716Z,15.68
2023-03-30T05:22:34.520Z,14.63
2023-03-30T05:23:38.185Z,15.73
2023-03-30T05:24:41.821Z,15.30
2023-03-30T05:25:46.109Z,15.32
2023-03-30T05:26:49.868Z,15.30
2023-03-30T05:27:53.805Z,14.43
2023-03-30T05:28:57.794Z,13.88
2023-03-30T05:30:01.718Z,13.60
2023-03-30T05:31:05.858Z,13.25
2023-03-30T05:32:09.716Z,16.55
2023-03-30T05:33:13.545Z,19.23
2023-03-30T05:34:19.033Z,16.85
2023-03-30T05:35:22.865Z,15.47
2023-03-30T05:36:26.668Z,16.85
2023-03-30T05:37:30.416Z,17.80
2023-03-30T05:38:34.132Z,16.98
2023-03-30T05:39:37.825Z,17.17
2023-03-30T05:40:41.509Z,15.40
2023-03-30T05:41:45.405Z,14.45
2023-03-30T05:42:49.107Z,15.93
2023-03-30T05:43:52.812Z,18.02
2023-03-30T05:44:56.483Z,15.82
2023-03-30T05:46:00.226Z,14.37
2023-03-30T05:47:03.930Z,18.45
2023-03-30T05:48:08.154Z,23.33
2023-03-30T05:49:11.900Z,13.93
2023-03-30T05:50:17.547Z,14.52
2023-03-30T05:51:21.216Z,14.13
2023-03-30T05:52:25.009Z,14.82
2023-03-30T05:53:28.685Z,14.90
2023-03-30T05:54:32.486Z,15.43
2023-03-30T05:55:36.212Z,15.73
2023-03-30T05:56:39.934Z,14.00
2023-03-30T05:57:43.777Z,15.45
2023-03-30T05:58:47.387Z,16.10
2023-03-30T05:59:51.056Z,14.55
2023-03-30T06:00:57.928Z,16.48
2023-03-30T06:02:01.676Z,14.70
2023-03-30T06:03:05.516Z,16.65
2023-03-30T06:04:09.413Z,14.50
2023-03-30T06:05:13.719Z,15.57
2023-03-30T06:06:19.060Z,15.05
2023-03-30T06:07:22.786Z,16.80
2023-03-30T06:08:26.526Z,14.88
2023-03-30T06:09:30.238Z,14.85
2023-03-30T06:10:33.945Z,13.63
2023-03-30T06:11:37.605Z,13.93
2023-03-30T06:12:41.434Z,13.03
2023-03-30T06:13:45.158Z,14.27
2023-03-30T06:14:48.846Z,13.85
2023-03-30T06:15:52.617Z,13.90
2023-03-30T06:16:56.577Z,13.70
2023-03-30T06:18:00.432Z,14.63
2023-03-30T06:19:04.261Z,17.13
2023-03-30T06:20:09.535Z,15.10
2023-03-30T06:21:13.210Z,13.95
2023-03-30T06:22:18.732Z,12.93
2023-03-30T06:23:22.431Z,14.47
2023-03-30T06:24:26.248Z,14.57
2023-03-30T06:25:29.939Z,16.55
2023-03-30T06:26:33.628Z,13.10
2023-03-30T06:27:37.511Z,13.35
2023-03-30T06:28:41.279Z,13.27
2023-03-30T06:29:44.977Z,13.65
2023-03-30T06:30:48.781Z,12.15
2023-03-30T06:31:52.524Z,12.35
2023-03-30T06:32:56.354Z,13.02
2023-03-30T06:34:00.107Z,12.03
2023-03-30T06:35:03.928Z,13.32
2023-03-30T06:36:12.243Z,12.27
2023-03-30T06:37:17.724Z,12.90
2023-03-30T06:38:22.417Z,12.23
2023-03-30T06:39:26.354Z,11.60
2023-03-30T06:40:30.073Z,11.77
2023-03-30T06:41:33.730Z,13.02
2023-03-30T06:42:37.533Z,12.35
2023-03-30T06:43:41.548Z,13.25
2023-03-30T06:44:45.862Z,13.63
2023-03-30T06:45:54.046Z,16.02
2023-03-30T06:46:57.836Z,12.95
2023-03-30T06:48:01.754Z,14.38
2023-03-30T06:49:05.439Z,14.70
2023-03-30T06:50:10.040Z,12.83
2023-03-30T06:51:13.759Z,15.95
2023-03-30T06:52:19.398Z,14.93
2023-03-30T06:53:24.187Z,13.73
2023-03-30T06:54:27.876Z,14.70
2023-03-30T06:55:31.812Z,15.43
2023-03-30T06:56:35.576Z,15.40
2023-03-30T06:57:39.377Z,12.82
2023-03-30T06:58:43.067Z,14.20
2023-03-30T06:59:46.832Z,15.27
2023-03-30T07:00:50.896Z,16.00
2023-03-30T07:01:54.716Z,13.15
2023-03-30T07:02:58.531Z,14.40
2023-03-30T07:04:02.281Z,15.23
2023-03-30T07:05:06.915Z,12.60
2023-03-30T07:06:11.288Z,12.90
2023-03-30T07:07:15.082Z,13.35
2023-03-30T07:08:21.238Z,14.95
2023-03-30T07:09:25.392Z,13.48
2023-03-30T07:10:29.237Z,12.23
2023-03-30T07:11:33.013Z,13.93
2023-03-30T07:12:36.700Z,13.63
2023-03-30T07:13:40.368Z,13.43
2023-03-30T07:14:44.001Z,14.55
2023-03-30T07:15:48.318Z,12.65
2023-03-30T07:16:52.064Z,13.60
2023-03-30T07:17:55.795Z,11.70
2023-03-30T07:18:59.585Z,13.82
2023-03-30T07:20:03.686Z,13.10
2023-03-30T07:21:07.688Z,13.18
2023-03-30T07:22:11.798Z,12.63
2023-03-30T07:23:15.534Z,12.25
2023-03-30T07:24:21.092Z,15.15
2023-03-30T07:25:24.833Z,14.18
2023-03-30T07:26:28.826Z,13.32
2023-03-30T07:27:32.636Z,14.50
2023-03-30T07:28:36.495Z,13.25
2023-03-30T07:29:40.227Z,12.82
2023-03-30T07:30:43.929Z,12.50
2023-03-30T07:31:47.632Z,12.13
2023-03-30T07:32:51.500Z,11.73
2023-03-30T07:33:55.271Z,13.05
2023-03-30T07:34:59.029Z,12.88
2023-03-30T07:36:02.737Z,14.10
2023-03-30T07:37:07.619Z,14.55
2023-03-30T07:38:11.515Z,13.90
2023-03-30T07:39:15.366Z,12.80
2023-03-30T07:40:21.421Z,12.88
2023-03-30T07:41:25.229Z,11.30
2023-03-30T07:42:28.996Z,13.07
2023-03-30T07:43:32.651Z,11.73
2023-03-30T07:44:36.561Z,12.00
2023-03-30T07:45:40.244Z,12.73
2023-03-30T07:46:44.089Z,14.18
2023-03-30T07:47:48.070Z,13.00
2023-03-30T07:48:51.798Z,12.57
2023-03-30T07:49:55.617Z,12.45
2023-03-30T07:51:03.705Z,12.07
2023-03-30T07:52:07.594Z,13.38
2023-03-30T07:53:11.715Z,12.95
2023-03-30T07:54:15.610Z,12.13
2023-03-30T07:55:20.967Z,13.75
2023-03-30T07:56:24.829Z,12.98
2023-03-30T07:57:28.669Z,12.73
2023-03-30T07:58:32.635Z,13.30
2023-03-30T07:59:36.850Z,12.53
2023-03-30T08:00:40.533Z,10.82
2023-03-30T08:01:44.292Z,11.30
2023-03-30T08:02:48.210Z,13.18
2023-03-30T08:03:51.983Z,11.02
2023-03-30T08:04:55.975Z,11.83
2023-03-30T08:06:01.571Z,11.65
2023-03-30T08:07:05.251Z,13.73
2023-03-30T08:08:09.050Z,12.07
2023-03-30T08:09:12.886Z,11.80
2023-03-30T08:10:16.842Z,11.67
2023-03-30T08:11:22.336Z,12.93
2023-03-30T08:12:26.144Z,10.32
2023-03-30T08:13:29.850Z,10.38
2023-03-30T08:14:33.633Z,11.77
2023-03-30T08:15:37.367Z,9.60
2023-03-30T08:16:41.197Z,10.32
2023-03-30T08:17:45.121Z,10.40
2023-03-30T08:18:48.802Z,10.80
2023-03-30T08:19:52.620Z,9.77
2023-03-30T08:20:56.475Z,11.07
2023-03-30T08:22:00.286Z,10.95
2023-03-30T08:23:04.147Z,10.60
2023-03-30T08:24:08.518Z,12.02
2023-03-30T08:25:12.226Z,10.00
2023-03-30T08:26:15.931Z,10.37
2023-03-30T08:27:23.097Z,12.65
2023-03-30T08:28:27.370Z,12.48
2023-03-30T08:29:31.175Z,13.38
2023-03-30T08:30:34.929Z,10.85
2023-03-30T08:31:39.315Z,11.27
2023-03-30T08:32:43.059Z,12.38
2023-03-30T08:33:46.800Z,12.80
2023-03-30T08:34:50.661Z,11.00
2023-03-30T08:35:54.370Z,10.50
2023-03-30T08:36:58.157Z,9.50
2023-03-30T08:38:01.877Z,10.27
2023-03-30T08:39:05.652Z,9.57
2023-03-30T08:40:12.341Z,14.48
2023-03-30T08:41:38.999Z,11.25
2023-03-30T08:43:14.250Z,9.67
2023-03-30T08:44:31.705Z,10.52
2023-03-30T08:45:39.583Z,15.23
2023-03-30T08:46:46.547Z,11.75
2023-03-30T08:47:52.218Z,15.13
2023-03-30T08:48:59.186Z,11.87
2023-03-30T08:50:09.395Z,12.93
2023-03-30T08:51:23.978Z,12.90
2023-03-30T08:52:28.369Z,10.25
2023-03-30T08:53:34.606Z,11.48
2023-03-30T08:54:38.420Z,10.57
2023-03-30T08:55:46.824Z,12.98
2023-03-30T08:57:00.385Z,10.73
2023-03-30T08:58:14.673Z,14.00
2023-03-30T08:59:23.730Z,17.45
2023-03-30T09:00:37.724Z,16.07
2023-03-30T09:01:48.157Z,13.88
2023-03-30T09:03:00.377Z,14.02
2023-03-30T09:04:14.625Z,15.95
2023-03-30T09:05:25.853Z,13.70
2023-03-30T09:06:40.392Z,14.73
2023-03-30T09:07:49.744Z,11.65
2023-03-30T09:08:54.104Z,12.43
2023-03-30T09:09:59.323Z,14.65
2023-03-30T09:11:05.358Z,18.73
2023-03-30T09:12:17.190Z,14.47
2023-03-30T09:13:26.091Z,14.50
2023-03-30T09:14:34.416Z,14.38
2023-03-30T09:15:44.791Z,12.60
2023-03-30T09:16:53.625Z,11.98
2023-03-30T09:18:03.264Z,14.90
2023-03-30T09:19:14.121Z,13.25
2023-03-30T09:20:23.520Z,15.15
2023-03-30T09:21:31.046Z,13.40
2023-03-30T09:22:39.958Z,12.07
2023-03-30T09:23:44.080Z,12.33
2023-03-30T09:24:48.202Z,13.50
2023-03-30T09:26:01.656Z,16.48
2023-03-30T09:27:10.830Z,13.73
2023-03-30T09:28:19.433Z,12.45
2023-03-30T09:29:29.256Z,15.27
2023-03-30T09:30:39.568Z,13.23
2023-03-30T09:31:46.606Z,12.00
2023-03-30T09:32:59.828Z,14.95
2023-03-30T09:34:07.878Z,13.00
2023-03-30T09:35:15.282Z,14.17
2023-03-30T09:36:30.052Z,14.00
2023-03-30T09:37:35.032Z,14.30
2023-03-30T09:38:39.140Z,16.90
2023-03-30T09:39:42.817Z,15.18
2023-03-30T09:41:04.954Z,16.37
2023-03-30T09:42:32.849Z,14.30
2023-03-30T09:43:41.194Z,15.18
2023-03-30T09:44:48.645Z,14.52
2023-03-30T09:45:52.361Z,15.45
2023-03-30T09:46:59.981Z,14.03
2023-03-30T09:48:08.131Z,11.90
2023-03-30T09:49:16.611Z,13.35
2023-03-30T09:50:24.401Z,14.25
2023-03-30T09:51:31.316Z,12.25
2023-03-30T09:52:36.192Z,16.10
2023-03-30T09:53:42.221Z,14.00
2023-03-30T09:54:45.905Z,14.23
2023-03-30T09:55:59.463Z,12.25
2023-03-30T09:57:03.244Z,12.38
2023-03-30T09:58:19.406Z,14.33
2023-03-30T09:59:29.663Z,17.08
2023-03-30T10:00:35.734Z,14.82
2023-03-30T10:01:39.617Z,13.45
2023-03-30T10:02:56.903Z,12.45
2023-03-30T10:04:12.351Z,13.13
2023-03-30T10:05:19.374Z,13.32
2023-03-30T10:06:23.235Z,13.70
2023-03-30T10:07:29.024Z,13.32
2023-03-30T10:08:33.114Z,12.75
2023-03-30T10:09:45.434Z,13.67
2023-03-30T10:10:55.361Z,13.13
2023-03-30T10:11:59.199Z,13.25
2023-03-30T10:13:09.177Z,14.70
2023-03-30T10:14:29.129Z,14.60
2023-03-30T10:15:37.385Z,15.50
2023-03-30T10:16:45.545Z,14.63
2023-03-30T10:17:50.308Z,12.68
2023-03-30T10:18:55.772Z,13.85
2023-03-30T10:20:22.106Z,14.93
2023-03-30T10:21:25.853Z,13.83
2023-03-30T10:22:29.899Z,13.70
2023-03-30T10:23:35.860Z,13.80
2023-03-30T10:24:51.050Z,14.80
2023-03-30T10:26:03.159Z,14.27
2023-03-30T10:27:13.213Z,13.93
2023-03-30T10:28:20.663Z,13.77
2023-03-30T10:29:27.024Z,16.48
2023-03-30T10:30:31.825Z,14.18
2023-03-30T10:31:39.349Z,15.23
2023-03-30T10:32:46.606Z,15.00
2023-03-30T10:33:50.384Z,15.10
2023-03-30T10:34:57.320Z,14.30
2023-03-30T10:36:02.264Z,15.70
2023-03-30T10:37:10.381Z,14.18
2023-03-30T10:38:15.930Z,16.00
2023-03-30T10:39:24.069Z,16.63
2023-03-30T10:40:33.549Z,16.48
2023-03-30T10:41:39.998Z,16.90
2023-03-30T10:42:44.290Z,18.75
2023-03-30T10:43:49.300Z,16.13
2023-03-30T10:44:55.925Z,15.13
2023-03-30T10:46:09.248Z,16.02
2023-03-30T10:47:56.836Z,16.00
2023-03-30T10:49:14.058Z,15.93
2023-03-30T10:50:28.095Z,15.67
2023-03-30T10:51:43.959Z,16.15
2023-03-30T10:52:59.872Z,15.35
2023-03-30T10:54:12.476Z,16.05
2023-03-30T10:55:21.965Z,14.57
2023-03-30T10:56:35.660Z,15.20
2023-03-30T10:57:51.422Z,18.80
2023-03-30T10:59:27.083Z,15.60
2023-03-30T11:00:45.074Z,15.98
2023-03-30T11:02:04.792Z,14.68
2023-03-30T11:03:17.316Z,12.73
2023-03-30T11:04:28.339Z,14.48
2023-03-30T11:05:34.412Z,13.82
2023-03-30T11:06:41.776Z,13.80
2023-03-30T11:07:50.960Z,14.38
2023-03-30T11:08:56.785Z,14.23
2023-03-30T11:10:05.761Z,14.75
2023-03-30T11:11:15.778Z,14.63
2023-03-30T11:12:23.438Z,14.90
2023-03-30T11:13:31.749Z,15.75
2023-03-30T11:14:45.730Z,14.07
2023-03-30T11:15:53.730Z,13.93
2023-03-30T11:17:05.333Z,16.02
2023-03-30T11:18:14.939Z,12.98
2023-03-30T11:19:23.683Z,15.35
2023-03-30T11:20:31.538Z,13.03
2023-03-30T11:21:41.535Z,16.27
2023-03-30T11:22:48.235Z,12.40
2023-03-30T11:23:55.702Z,14.60
2023-03-30T11:25:00.263Z,12.02
2023-03-30T11:26:05.689Z,12.00
2023-03-30T11:27:17.392Z,11.50
2023-03-30T11:28:33.753Z,10.65
2023-03-30T11:29:44.314Z,13.30
2023-03-30T11:30:49.924Z,10.98
2023-03-30T11:32:02.566Z,12.17
2023-03-30T11:33:19.952Z,13.32
2023-03-30T11:34:32.875Z,13.35
2023-03-30T11:35:40.600Z,12.50
2023-03-30T11:36:50.990Z,12.63
2023-03-30T11:38:01.537Z,11.30
2023-03-30T11:39:07.025Z,12.88
2023-03-30T11:40:17.664Z,12.27
2023-03-30T11:41:28.139Z,10.93
2023-03-30T11:42:32.912Z,12.02
2023-03-30T11:43:36.856Z,11.57
2023-03-30T11:44:40.694Z,12.30
2023-03-30T11:45:52.388Z,13.80
2023-03-30T11:47:10.155Z,11.75
2023-03-30T11:48:34.234Z,12.70
2023-03-30T11:49:48.967Z,13.30
2023-03-30T11:51:07.228Z,9.30
2023-03-30T11:52:25.750Z,11.15
2023-03-30T11:53:39.352Z,11.68
2023-03-30T11:55:03.359Z,14.63
2023-03-30T11:56:11.291Z,14.37
2023-03-30T11:57:23.967Z,11.43
2023-03-30T11:58:35.241Z,13.45
2023-03-30T11:59:48.926Z,11.88
2023-03-30T12:01:02.802Z,11.77
2023-03-30T12:02:18.399Z,12.47
2023-03-30T12:03:37.228Z,12.40
2023-03-30T12:04:47.611Z,13.60
2023-03-30T12:05:56.453Z,12.95
2023-03-30T12:07:01.471Z,12.70
2023-03-30T12:08:15.605Z,13.37
2023-03-30T12:09:28.526Z,11.27
2023-03-30T12:10:37.429Z,12.18
2023-03-30T12:11:46.346Z,9.80
2023-03-30T12:12:50.342Z,13.73
2023-03-30T12:13:54.551Z,12.83
2023-03-30T12:15:10.255Z,12.30
2023-03-30T12:16:20.140Z,11.55
2023-03-30T12:17:33.500Z,10.63
2023-03-30T12:18:43.538Z,11.95
2023-03-30T12:19:56.582Z,9.77
2023-03-30T12:21:16.346Z,9.90
2023-03-30T12:22:26.156Z,11.57
2023-03-30T12:23:38.253Z,10.93
2023-03-30T12:24:48.907Z,10.07
2023-03-30T12:26:08.403Z,12.10
2023-03-30T12:27:12.184Z,10.98
2023-03-30T12:28:17.395Z,10.40
2023-03-30T12:29:58.339Z,10.82
2023-03-30T12:30:54.050Z,10.63
2023-03-30T12:32:19.929Z,11.80
2023-03-30T12:33:28.966Z,11.48
2023-03-30T12:34:36.249Z,11.55
2023-03-30T12:36:00.401Z,12.52
2023-03-30T12:37:08.014Z,12.43
2023-03-30T12:38:16.923Z,13.60
2023-03-30T12:39:27.522Z,12.52
2023-03-30T12:40:31.264Z,10.40
2023-03-30T12:41:42.668Z,12.68
2023-03-30T12:42:53.853Z,10.30
2023-03-30T12:44:20.651Z,13.27
2023-03-30T12:45:30.544Z,11.02
2023-03-30T12:46:39.183Z,10.93
2023-03-30T12:47:59.260Z,11.68
2023-03-30T12:49:11.993Z,13.23
2023-03-30T12:50:29.929Z,10.57
2023-03-30T12:51:49.763Z,11.98
2023-03-30T12:53:08.574Z,11.13
2023-03-30T12:54:48.756Z,11.13
2023-03-30T12:56:02.208Z,12.02
2023-03-30T12:57:18.944Z,10.77
2023-03-30T12:58:44.657Z,12.60
2023-03-30T13:00:26.708Z,12.85
2023-03-30T13:01:50.819Z,10.75
2023-03-30T13:03:35.351Z,14.13
2023-03-30T13:04:41.561Z,11.93
2023-03-30T13:05:52.155Z,12.40
2023-03-30T13:06:59.023Z,10.93
2023-03-30T13:08:06.319Z,12.80
2023-03-30T13:09:36.127Z,11.10
2023-03-30T13:10:43.796Z,11.63
2023-03-30T13:12:08.167Z,10.57
2023-03-30T13:13:23.068Z,13.60
2023-03-30T13:14:28.900Z,11.40
2023-03-30T13:15:41.170Z,13.25
2023-03-30T13:17:10.903Z,13.57
2023-03-30T13:18:34.652Z,13.52
2023-03-30T13:20:05.063Z,11.85
2023-03-30T13:21:46.871Z,11.23
2023-03-30T13:23:02.490Z,12.32
2023-03-30T13:24:36.495Z,12.40
2023-03-30T13:26:35.427Z,13.70
2023-03-30T13:27:42.566Z,13.07
2023-03-30T13:28:56.204Z,10.63
2023-03-30T13:30:01.325Z,11.68
2023-03-30T13:31:18.969Z,13.83
2023-03-30T13:32:32.724Z,13.98
2023-03-30T13:33:41.913Z,13.68
2023-03-30T13:35:12.815Z,13.18
2023-03-30T13:36:23.407Z,11.65
2023-03-30T13:37:39.061Z,12.07
2023-03-30T13:38:57.893Z,12.20
2023-03-30T13:40:11.829Z,11.38
2023-03-30T13:41:25.098Z,10.75
2023-03-30T13:42:50.264Z,11.55
2023-03-30T13:44:06.628Z,11.60
2023-03-30T13:45:22.120Z,11.32
2023-03-30T13:46:33.313Z,11.80
2023-03-30T13:47:47.561Z,11.57
2023-03-30T13:49:05.416Z,14.20
2023-03-30T13:50:18.961Z,12.80
2023-03-30T13:51:27.024Z,13.68
2023-03-30T13:52:38.293Z,13.73
2023-03-30T13:53:48.672Z,14.68
2023-03-30T13:54:53.035Z,12.43
2023-03-30T13:55:57.396Z,13.43
2023-03-30T13:57:06.761Z,11.65
2023-03-30T13:58:16.904Z,14.40
2023-03-30T13:59:25.464Z,12.43
2023-03-30T14:00:36.441Z,11.35
2023-03-30T14:01:42.577Z,12.33
2023-03-30T14:02:46.349Z,11.73
2023-03-30T14:03:51.164Z,13.60
2023-03-30T14:04:55.033Z,13.68
2023-03-30T14:06:02.951Z,11.93
2023-03-30T14:07:15.103Z,13.57
2023-03-30T14:08:20.514Z,13.40
2023-03-30T14:09:25.873Z,13.52
2023-03-30T14:10:29.667Z,11.77
2023-03-30T14:11:37.054Z,12.35
2023-03-30T14:12:42.772Z,10.00
2023-03-30T14:13:50.194Z,11.13
2023-03-30T14:14:54.549Z,12.75
2023-03-30T14:15:59.393Z,12.13
2023-03-30T14:17:05.135Z,10.73
2023-03-30T14:18:14.270Z,9.90
2023-03-30T14:19:25.328Z,11.95
2023-03-30T14:20:47.227Z,10.63
2023-03-30T14:21:52.161Z,11.70
2023-03-30T14:22:57.838Z,13.57
2023-03-30T14:24:04.973Z,13.17
2023-03-30T14:25:23.892Z,10.38
2023-03-30T14:26:29.387Z,12.18
2023-03-30T14:27:38.490Z,11.00
2023-03-30T14:28:42.657Z,11.15
2023-03-30T14:29:47.211Z,11.87
2023-03-30T14:30:52.531Z,12.70
2023-03-30T14:32:07.395Z,13.75
2023-03-30T14:33:14.266Z,12.10
2023-03-30T14:34:28.619Z,13.15
2023-03-30T14:35:32.399Z,12.27
2023-03-30T14:36:36.088Z,12.48
2023-03-30T14:37:39.772Z,11.30
2023-03-30T14:38:45.827Z,11.57
2023-03-30T14:39:54.233Z,16.60